createdAt,value
2019-03-17T00:00:57.336Z,21.85
2019-03-17T00:01:57.920Z,21.91
2019-03-17T00:02:57.297Z,21.83
2019-03-17T00:03:57.288Z,21.85
2019-03-17T00:04:57.282Z,21.79
2019-03-17T00:05:57.270Z,21.80
2019-03-17T00:06:57.279Z,21.83
2019-03-17T00:07:57.245Z,21.80
2019-03-17T00:08:57.240Z,21.88
2019-03-17T00:09:57.246Z,21.89
2019-03-17T00:10:57.214Z,21.85
2019-03-17T00:11:57.210Z,21.79
2019-03-17T00:12:57.203Z,21.85
2019-03-17T00:13:57.190Z,21.89
2019-03-17T00:15:05.014Z,21.88
2019-03-17T00:15:58.181Z,21.83
2019-03-17T00:16:57.150Z,21.80
2019-03-17T00:17:57.147Z,21.89
2019-03-17T00:18:57.142Z,21.80
2019-03-17T00:19:57.115Z,21.91
2019-03-17T00:20:57.102Z,21.85
2019-03-17T00:21:57.092Z,21.88
2019-03-17T00:22:57.081Z,21.88
2019-03-17T00:23:57.069Z,21.91
2019-03-17T00:25:08.545Z,21.89
2019-03-17T00:25:58.051Z,21.85
2019-03-17T00:26:57.034Z,21.92
2019-03-17T00:27:57.047Z,21.91
2019-03-17T00:28:57.026Z,21.80
2019-03-17T00:29:57.008Z,21.91
2019-03-17T00:30:56.991Z,21.88
2019-03-17T00:31:56.984Z,21.89
2019-03-17T00:32:56.989Z,21.89
2019-03-17T00:33:56.961Z,21.92
2019-03-17T00:34:56.959Z,21.88
2019-03-17T00:35:56.959Z,21.82
2019-03-17T00:36:56.941Z,21.85
2019-03-17T00:37:56.915Z,21.80
2019-03-17T00:38:56.903Z,21.85
2019-03-17T00:39:56.894Z,21.92
2019-03-17T00:40:56.892Z,21.80
2019-03-17T00:41:56.872Z,21.80
2019-03-17T00:42:56.862Z,21.89
2019-03-17T00:43:56.852Z,21.85
2019-03-17T00:44:56.848Z,21.91
2019-03-17T00:45:56.828Z,21.91
2019-03-17T00:46:56.829Z,21.92
2019-03-17T00:47:56.807Z,21.85
2019-03-17T00:48:56.818Z,21.88
2019-03-17T00:49:56.793Z,21.85
2019-03-17T00:50:56.792Z,21.82
2019-03-17T00:51:56.765Z,21.89
2019-03-17T00:52:56.763Z,21.88
2019-03-17T00:53:56.748Z,21.82
2019-03-17T00:54:56.732Z,21.80
2019-03-17T00:55:56.743Z,21.79
2019-03-17T00:56:56.708Z,21.88
2019-03-17T00:57:56.701Z,21.85
2019-03-17T00:58:56.714Z,21.95
2019-03-17T00:59:56.677Z,21.89
2019-03-17T01:00:56.670Z,21.80
2019-03-17T01:01:56.653Z,21.82
2019-03-17T01:02:56.659Z,21.82
2019-03-17T01:03:56.639Z,21.89
2019-03-17T01:04:56.748Z,21.83
2019-03-17T01:05:56.613Z,21.89
2019-03-17T01:06:56.600Z,21.82
2019-03-17T01:07:56.590Z,21.88
2019-03-17T01:08:56.598Z,21.80
2019-03-17T01:09:56.572Z,21.83
2019-03-17T01:10:56.561Z,21.85
2019-03-17T01:11:56.547Z,21.83
2019-03-17T01:12:56.537Z,21.80
2019-03-17T01:13:56.527Z,21.88
2019-03-17T01:14:56.517Z,21.88
2019-03-17T01:15:56.511Z,21.88
2019-03-17T01:16:56.501Z,21.88
2019-03-17T01:17:56.482Z,21.85
2019-03-17T01:18:56.486Z,21.82
2019-03-17T01:19:56.465Z,21.88
2019-03-17T01:20:56.460Z,21.85
2019-03-17T01:21:56.456Z,21.88
2019-03-17T01:22:56.435Z,21.92
2019-03-17T01:23:56.419Z,21.89
2019-03-17T01:24:56.413Z,21.79
2019-03-17T01:25:56.405Z,21.82
2019-03-17T01:26:56.387Z,21.88
2019-03-17T01:27:56.388Z,21.89
2019-03-17T01:28:56.365Z,21.80
2019-03-17T01:29:57.572Z,21.89
2019-03-17T01:30:56.343Z,21.85
2019-03-17T01:31:56.341Z,21.89
2019-03-17T01:32:56.326Z,21.88
2019-03-17T01:33:56.321Z,21.83
2019-03-17T01:35:08.234Z,21.92
2019-03-17T01:35:57.296Z,21.83
2019-03-17T01:36:56.285Z,21.79
2019-03-17T01:37:56.267Z,21.85
2019-03-17T01:38:56.265Z,21.85
2019-03-17T01:39:56.246Z,21.85
2019-03-17T01:40:56.251Z,21.85
2019-03-17T01:41:56.225Z,21.82
2019-03-17T01:42:56.215Z,21.82
2019-03-17T01:43:56.204Z,21.88
2019-03-17T01:44:56.195Z,21.89
2019-03-17T01:45:56.186Z,21.88
2019-03-17T01:46:56.173Z,21.82
2019-03-17T01:47:56.162Z,21.91
2019-03-17T01:48:56.151Z,21.83
2019-03-17T01:49:56.152Z,21.88
2019-03-17T01:50:56.132Z,21.85
2019-03-17T01:51:56.120Z,21.85
2019-03-17T01:52:56.106Z,21.85
2019-03-17T01:53:56.094Z,21.88
2019-03-17T01:54:56.091Z,21.82
2019-03-17T01:55:56.079Z,21.88
2019-03-17T01:56:56.067Z,21.88
2019-03-17T01:57:56.051Z,21.89
2019-03-17T01:58:56.041Z,21.82
2019-03-17T01:59:56.030Z,21.85
2019-03-17T02:00:56.026Z,21.82
2019-03-17T02:01:56.014Z,21.88
2019-03-17T02:02:56.006Z,21.82
2019-03-17T02:03:55.984Z,21.80
2019-03-17T02:04:55.974Z,21.80
2019-03-17T02:05:55.965Z,21.92
2019-03-17T02:06:55.951Z,21.85
2019-03-17T02:07:55.949Z,21.85
2019-03-17T02:08:55.930Z,21.88
2019-03-17T02:09:55.918Z,21.91
2019-03-17T02:10:55.911Z,21.82
2019-03-17T02:11:55.897Z,21.89
2019-03-17T02:12:55.920Z,21.80
2019-03-17T02:13:55.885Z,21.85
2019-03-17T02:14:55.864Z,21.83
2019-03-17T02:15:55.857Z,21.82
2019-03-17T02:16:55.844Z,21.83
2019-03-17T02:17:55.848Z,21.88
2019-03-17T02:18:55.823Z,21.92
2019-03-17T02:19:55.839Z,21.85
2019-03-17T02:20:55.800Z,21.80
2019-03-17T02:21:55.790Z,21.79
2019-03-17T02:22:55.779Z,21.85
2019-03-17T02:23:55.786Z,21.80
2019-03-17T02:24:55.762Z,21.85
2019-03-17T02:25:55.755Z,21.89
2019-03-17T02:26:55.777Z,21.76
2019-03-17T02:27:55.725Z,21.77
2019-03-17T02:28:55.739Z,21.85
2019-03-17T02:29:55.705Z,21.79
2019-03-17T02:30:55.704Z,21.89
2019-03-17T02:31:55.703Z,21.82
2019-03-17T02:32:55.675Z,21.85
2019-03-17T02:33:55.687Z,21.91
2019-03-17T02:34:55.652Z,21.79
2019-03-17T02:35:55.645Z,21.83
2019-03-17T02:36:55.656Z,21.89
2019-03-17T02:37:55.633Z,21.91
2019-03-17T02:38:55.614Z,21.89
2019-03-17T02:39:55.600Z,21.79
2019-03-17T02:40:55.585Z,21.85
2019-03-17T02:41:55.575Z,21.76
2019-03-17T02:42:55.580Z,21.75
2019-03-17T02:43:55.553Z,21.77
2019-03-17T02:44:55.543Z,21.75
2019-03-17T02:45:55.531Z,21.88
2019-03-17T02:46:55.526Z,21.77
2019-03-17T02:47:55.511Z,21.77
2019-03-17T02:48:55.504Z,21.76
2019-03-17T02:49:55.489Z,21.91
2019-03-17T02:50:55.485Z,21.82
2019-03-17T02:51:55.463Z,21.76
2019-03-17T02:52:55.455Z,21.79
2019-03-17T02:53:55.459Z,21.76
2019-03-17T02:54:55.445Z,21.77
2019-03-17T02:55:55.422Z,21.79
2019-03-17T02:56:55.412Z,21.77
2019-03-17T02:57:55.409Z,21.77
2019-03-17T02:58:55.405Z,21.77
2019-03-17T02:59:55.378Z,21.77
2019-03-17T03:00:55.382Z,21.83
2019-03-17T03:01:55.359Z,21.76
2019-03-17T03:02:55.345Z,21.76
2019-03-17T03:03:55.334Z,21.77
2019-03-17T03:04:55.330Z,21.79
2019-03-17T03:05:55.761Z,21.79
2019-03-17T03:06:55.327Z,21.79
2019-03-17T03:07:55.292Z,21.79
2019-03-17T03:08:55.292Z,21.77
2019-03-17T03:09:55.278Z,21.82
2019-03-17T03:10:55.258Z,21.79
2019-03-17T03:11:55.256Z,21.77
2019-03-17T03:12:55.249Z,21.80
2019-03-17T03:13:55.226Z,21.76
2019-03-17T03:14:55.217Z,21.85
2019-03-17T03:15:55.214Z,21.79
2019-03-17T03:16:55.199Z,21.77
2019-03-17T03:17:55.196Z,21.73
2019-03-17T03:18:55.175Z,21.83
2019-03-17T03:19:55.192Z,21.75
2019-03-17T03:20:55.158Z,21.77
2019-03-17T03:21:55.174Z,21.80
2019-03-17T03:22:55.136Z,21.77
2019-03-17T03:23:55.139Z,21.85
2019-03-17T03:24:55.108Z,21.79
2019-03-17T03:25:55.098Z,21.79
2019-03-17T03:26:55.089Z,21.82
2019-03-17T03:27:55.078Z,21.75
2019-03-17T03:28:55.067Z,21.80
2019-03-17T03:29:55.058Z,21.76
2019-03-17T03:30:55.063Z,21.82
2019-03-17T03:31:55.053Z,21.79
2019-03-17T03:32:55.023Z,21.83
2019-03-17T03:33:55.024Z,21.75
2019-03-17T03:34:55.004Z,21.83
2019-03-17T03:36:10.113Z,21.76
2019-03-17T03:36:55.979Z,21.89
2019-03-17T03:37:54.969Z,21.80
2019-03-17T03:38:54.961Z,21.82
2019-03-17T03:39:54.950Z,21.76
2019-03-17T03:40:54.954Z,21.80
2019-03-17T03:41:54.984Z,21.77
2019-03-17T03:42:54.924Z,21.77
2019-03-17T03:43:54.923Z,21.77
2019-03-17T03:44:54.901Z,21.79
2019-03-17T03:45:54.891Z,21.79
2019-03-17T03:46:54.879Z,21.79
2019-03-17T03:47:54.869Z,21.77
2019-03-17T03:48:54.855Z,21.76
2019-03-17T03:49:57.165Z,21.80
2019-03-17T03:50:54.839Z,21.76
2019-03-17T03:51:54.825Z,21.76
2019-03-17T03:52:54.823Z,21.80
2019-03-17T03:53:54.808Z,21.77
2019-03-17T03:54:54.795Z,21.79
2019-03-17T03:55:54.782Z,21.75
2019-03-17T03:56:54.785Z,21.76
2019-03-17T03:57:54.763Z,21.75
2019-03-17T03:58:54.764Z,21.75
2019-03-17T03:59:54.768Z,21.76
2019-03-17T04:00:54.730Z,21.82
2019-03-17T04:01:54.719Z,21.82
2019-03-17T04:02:54.722Z,21.80
2019-03-17T04:03:54.707Z,21.80
2019-03-17T04:04:54.699Z,21.82
2019-03-17T04:05:54.683Z,21.79
2019-03-17T04:06:54.665Z,21.75
2019-03-17T04:07:54.655Z,21.75
2019-03-17T04:08:54.659Z,21.77
2019-03-17T04:09:54.643Z,21.79
2019-03-17T04:10:54.637Z,21.77
2019-03-17T04:11:54.621Z,21.79
2019-03-17T04:12:54.602Z,21.73
2019-03-17T04:13:54.605Z,21.75
2019-03-17T04:14:54.582Z,21.77
2019-03-17T04:15:54.578Z,21.79
2019-03-17T04:16:54.561Z,21.79
2019-03-17T04:17:54.553Z,21.79
2019-03-17T04:18:54.569Z,21.76
2019-03-17T04:19:54.538Z,21.76
2019-03-17T04:20:54.517Z,21.69
2019-03-17T04:21:54.509Z,21.75
2019-03-17T04:22:54.511Z,21.77
2019-03-17T04:23:54.504Z,21.72
2019-03-17T04:24:54.476Z,21.73
2019-03-17T04:25:54.466Z,21.77
2019-03-17T04:26:54.460Z,21.72
2019-03-17T04:27:54.449Z,21.69
2019-03-17T04:28:54.447Z,21.76
2019-03-17T04:29:54.422Z,21.73
2019-03-17T04:30:54.412Z,21.77
2019-03-17T04:31:54.404Z,21.80
2019-03-17T04:32:54.393Z,21.72
2019-03-17T04:33:54.409Z,21.73
2019-03-17T04:34:54.371Z,21.69
2019-03-17T04:35:54.362Z,21.76
2019-03-17T04:36:54.349Z,21.73
2019-03-17T04:37:54.341Z,21.77
2019-03-17T04:38:54.328Z,21.73
2019-03-17T04:39:54.320Z,21.70
2019-03-17T04:40:54.310Z,21.77
2019-03-17T04:41:54.319Z,21.73
2019-03-17T04:42:54.284Z,21.72
2019-03-17T04:43:54.279Z,21.72
2019-03-17T04:44:54.265Z,21.75
2019-03-17T04:45:54.273Z,21.72
2019-03-17T04:46:54.243Z,21.77
2019-03-17T04:47:54.233Z,21.75
2019-03-17T04:48:54.353Z,21.73
2019-03-17T04:49:54.220Z,21.75
2019-03-17T04:50:54.215Z,21.76
2019-03-17T04:51:54.209Z,21.76
2019-03-17T04:52:54.182Z,21.75
2019-03-17T04:53:54.169Z,21.73
2019-03-17T04:54:54.158Z,21.80
2019-03-17T04:55:54.149Z,21.77
2019-03-17T04:56:54.141Z,21.75
2019-03-17T04:57:54.139Z,21.76
2019-03-17T04:58:54.120Z,21.73
2019-03-17T04:59:54.105Z,21.75
2019-03-17T05:00:54.096Z,21.76
2019-03-17T05:01:54.083Z,21.77
2019-03-17T05:02:54.085Z,21.73
2019-03-17T05:03:54.063Z,21.75
2019-03-17T05:04:54.056Z,21.76
2019-03-17T05:05:54.041Z,21.75
2019-03-17T05:06:54.094Z,21.69
2019-03-17T05:07:54.021Z,21.73
2019-03-17T05:08:54.022Z,21.73
2019-03-17T05:09:54.001Z,21.76
2019-03-17T05:10:54.004Z,21.73
2019-03-17T05:11:53.983Z,21.75
2019-03-17T05:12:53.968Z,21.73
2019-03-17T05:13:53.957Z,21.72
2019-03-17T05:14:53.950Z,21.72
2019-03-17T05:15:53.938Z,21.75
2019-03-17T05:16:53.931Z,21.75
2019-03-17T05:17:53.915Z,21.79
2019-03-17T05:18:53.905Z,21.77
2019-03-17T05:19:53.895Z,21.77
2019-03-17T05:20:53.888Z,21.73
2019-03-17T05:21:53.874Z,21.77
2019-03-17T05:22:53.876Z,21.79
2019-03-17T05:23:53.856Z,21.83
2019-03-17T05:24:53.843Z,21.79
2019-03-17T05:25:53.834Z,21.73
2019-03-17T05:26:53.829Z,21.77
2019-03-17T05:27:53.815Z,21.73
2019-03-17T05:28:53.818Z,21.73
2019-03-17T05:29:53.786Z,21.73
2019-03-17T05:30:53.786Z,21.73
2019-03-17T05:31:53.769Z,21.70
2019-03-17T05:32:53.763Z,21.79
2019-03-17T05:33:53.751Z,21.76
2019-03-17T05:34:53.765Z,21.79
2019-03-17T05:35:53.723Z,21.76
2019-03-17T05:37:05.577Z,21.72
2019-03-17T05:37:54.703Z,21.77
2019-03-17T05:38:53.690Z,21.79
2019-03-17T05:39:53.679Z,21.79
2019-03-17T05:40:53.669Z,21.79
2019-03-17T05:41:53.657Z,21.77
2019-03-17T05:42:53.648Z,21.75
2019-03-17T05:43:53.639Z,21.82
2019-03-17T05:44:53.628Z,21.70
2019-03-17T05:45:53.630Z,21.73
2019-03-17T05:46:53.604Z,21.75
2019-03-17T05:47:53.594Z,21.76
2019-03-17T05:48:53.632Z,21.77
2019-03-17T05:49:53.577Z,21.77
2019-03-17T05:50:53.562Z,21.72
2019-03-17T05:51:53.563Z,21.75
2019-03-17T05:52:53.542Z,21.79
2019-03-17T05:53:53.531Z,21.77
2019-03-17T05:54:53.524Z,21.77
2019-03-17T05:55:53.512Z,21.77
2019-03-17T05:56:53.505Z,21.77
2019-03-17T05:57:53.496Z,21.75
2019-03-17T05:58:53.478Z,21.79
2019-03-17T05:59:53.468Z,21.77
2019-03-17T06:00:53.457Z,21.77
2019-03-17T06:01:53.448Z,21.75
2019-03-17T06:02:53.436Z,21.75
2019-03-17T06:03:53.427Z,21.76
2019-03-17T06:04:53.415Z,21.80
2019-03-17T06:05:53.410Z,21.77
2019-03-17T06:06:53.394Z,21.77
2019-03-17T06:07:53.390Z,21.73
2019-03-17T06:08:53.373Z,21.79
2019-03-17T06:09:53.362Z,21.77
2019-03-17T06:10:53.348Z,21.73
2019-03-17T06:11:53.338Z,21.77
2019-03-17T06:12:53.333Z,21.82
2019-03-17T06:13:53.328Z,21.80
2019-03-17T06:14:53.313Z,21.82
2019-03-17T06:15:53.303Z,21.80
2019-03-17T06:16:53.284Z,21.75
2019-03-17T06:17:53.272Z,21.73
2019-03-17T06:18:53.271Z,21.79
2019-03-17T06:19:53.251Z,21.77
2019-03-17T06:20:53.241Z,21.79
2019-03-17T06:21:53.228Z,21.77
2019-03-17T06:22:53.218Z,21.77
2019-03-17T06:23:53.208Z,21.73
2019-03-17T06:24:53.199Z,21.77
2019-03-17T06:25:53.188Z,21.79
2019-03-17T06:26:53.175Z,21.75
2019-03-17T06:27:53.162Z,21.76
2019-03-17T06:28:53.166Z,21.77
2019-03-17T06:29:53.142Z,21.77
2019-03-17T06:30:53.143Z,21.70
2019-03-17T06:31:53.118Z,21.80
2019-03-17T06:32:53.123Z,21.80
2019-03-17T06:33:53.098Z,21.76
2019-03-17T06:34:53.085Z,21.82
2019-03-17T06:35:53.080Z,21.75
2019-03-17T06:36:53.064Z,21.89
2019-03-17T06:37:53.060Z,21.77
2019-03-17T06:38:53.045Z,21.88
2019-03-17T06:39:53.037Z,21.77
2019-03-17T06:40:53.019Z,21.77
2019-03-17T06:41:53.015Z,21.82
2019-03-17T06:42:52.998Z,21.83
2019-03-17T06:43:53.006Z,21.88
2019-03-17T06:44:53.003Z,21.77
2019-03-17T06:45:52.964Z,21.77
2019-03-17T06:46:52.956Z,21.83
2019-03-17T06:47:52.999Z,21.77
2019-03-17T06:48:52.965Z,21.83
2019-03-17T06:49:52.987Z,21.89
2019-03-17T06:50:52.946Z,21.76
2019-03-17T06:51:52.905Z,21.89
2019-03-17T06:52:53.618Z,21.85
2019-03-17T06:53:56.623Z,21.80
2019-03-17T06:54:52.867Z,21.77
2019-03-17T06:55:52.860Z,21.85
2019-03-17T06:56:52.846Z,21.80
2019-03-17T06:57:52.836Z,21.80
2019-03-17T06:58:52.824Z,21.83
2019-03-17T06:59:52.813Z,21.75
2019-03-17T07:00:52.804Z,21.88
2019-03-17T07:01:52.794Z,21.85
2019-03-17T07:02:52.782Z,21.85
2019-03-17T07:03:52.772Z,21.88
2019-03-17T07:04:54.019Z,21.77
2019-03-17T07:05:52.752Z,21.88
2019-03-17T07:06:52.740Z,21.88
2019-03-17T07:07:52.732Z,21.79
2019-03-17T07:08:52.716Z,21.80
2019-03-17T07:09:52.703Z,21.89
2019-03-17T07:10:52.697Z,21.88
2019-03-17T07:11:52.691Z,21.89
2019-03-17T07:12:52.677Z,21.88
2019-03-17T07:13:52.742Z,21.89
2019-03-17T07:14:52.652Z,21.92
2019-03-17T07:15:52.642Z,21.98
2019-03-17T07:16:52.634Z,21.85
2019-03-17T07:17:52.627Z,21.89
2019-03-17T07:18:52.614Z,21.92
2019-03-17T07:19:52.611Z,21.95
2019-03-17T07:20:52.595Z,21.96
2019-03-17T07:21:52.578Z,21.99
2019-03-17T07:22:52.573Z,21.92
2019-03-17T07:23:52.568Z,21.96
2019-03-17T07:24:52.547Z,21.93
2019-03-17T07:25:52.535Z,22.00
2019-03-17T07:26:52.536Z,21.95
2019-03-17T07:27:52.516Z,21.93
2019-03-17T07:28:52.500Z,21.98
2019-03-17T07:29:52.489Z,21.93
2019-03-17T07:30:52.510Z,21.96
2019-03-17T07:31:52.471Z,21.98
2019-03-17T07:32:52.455Z,22.00
2019-03-17T07:33:52.447Z,21.96
2019-03-17T07:34:52.435Z,21.93
2019-03-17T07:35:52.426Z,21.98
2019-03-17T07:36:52.475Z,21.98
2019-03-17T07:37:57.066Z,21.99
2019-03-17T07:38:52.390Z,22.06
2019-03-17T07:39:52.384Z,22.04
2019-03-17T07:40:52.374Z,22.11
2019-03-17T07:41:52.363Z,22.17
2019-03-17T07:42:52.356Z,22.15
2019-03-17T07:43:52.339Z,22.18
2019-03-17T07:44:52.386Z,22.14
2019-03-17T07:45:52.332Z,22.23
2019-03-17T07:46:52.306Z,22.22
2019-03-17T07:47:52.297Z,22.26
2019-03-17T07:48:52.289Z,22.38
2019-03-17T07:49:52.280Z,22.36
2019-03-17T07:50:52.265Z,22.44
2019-03-17T07:51:52.267Z,22.54
2019-03-17T07:52:52.241Z,22.59
2019-03-17T07:53:52.235Z,22.72
2019-03-17T07:54:52.228Z,22.76
2019-03-17T07:55:52.207Z,22.78
2019-03-17T07:56:52.206Z,22.88
2019-03-17T07:57:52.199Z,22.91
2019-03-17T07:58:52.177Z,23.06
2019-03-17T07:59:52.165Z,23.09
2019-03-17T08:00:52.155Z,23.23
2019-03-17T08:01:52.145Z,23.37
2019-03-17T08:02:52.133Z,23.54
2019-03-17T08:03:52.121Z,23.61
2019-03-17T08:04:52.118Z,23.66
2019-03-17T08:05:52.102Z,23.83
2019-03-17T08:06:52.090Z,23.93
2019-03-17T08:07:52.087Z,23.98
2019-03-17T08:08:52.071Z,24.05
2019-03-17T08:09:52.059Z,24.18
2019-03-17T08:10:52.047Z,24.30
2019-03-17T08:11:52.036Z,24.40
2019-03-17T08:12:52.028Z,24.51
2019-03-17T08:13:52.027Z,24.65
2019-03-17T08:14:52.004Z,24.80
2019-03-17T08:15:51.997Z,24.95
2019-03-17T08:16:51.992Z,24.98
2019-03-17T08:17:51.974Z,25.10
2019-03-17T08:18:51.967Z,25.13
2019-03-17T08:19:51.999Z,25.29
2019-03-17T08:20:51.949Z,25.36
2019-03-17T08:21:51.930Z,25.47
2019-03-17T08:22:51.918Z,25.50
2019-03-17T08:23:51.913Z,25.65
2019-03-17T08:24:51.902Z,25.73
2019-03-17T08:25:51.882Z,25.81
2019-03-17T08:26:51.872Z,25.93
2019-03-17T08:27:51.874Z,25.91
2019-03-17T08:28:51.856Z,25.98
2019-03-17T08:29:51.849Z,25.99
2019-03-17T08:30:53.451Z,26.13
2019-03-17T08:31:51.820Z,26.15
2019-03-17T08:32:51.826Z,26.13
2019-03-17T08:33:51.798Z,26.07
2019-03-17T08:34:51.802Z,26.00
2019-03-17T08:35:51.776Z,26.13
2019-03-17T08:36:52.620Z,25.98
2019-03-17T08:37:51.756Z,25.96
2019-03-17T08:38:51.745Z,25.84
2019-03-17T08:39:51.737Z,25.83
2019-03-17T08:40:51.737Z,25.83
2019-03-17T08:41:51.718Z,25.68
2019-03-17T08:42:51.731Z,25.60
2019-03-17T08:43:54.551Z,25.48
2019-03-17T08:44:51.680Z,25.46
2019-03-17T08:45:51.670Z,25.32
2019-03-17T08:46:51.662Z,25.26
2019-03-17T08:47:58.040Z,25.04
2019-03-17T08:48:52.635Z,24.88
2019-03-17T08:49:51.647Z,24.78
2019-03-17T08:50:51.615Z,24.63
2019-03-17T08:51:51.602Z,24.54
2019-03-17T08:52:51.595Z,24.40
2019-03-17T08:53:51.587Z,24.30
2019-03-17T08:54:51.574Z,24.18
2019-03-17T08:55:51.559Z,24.18
2019-03-17T08:56:51.565Z,24.13
2019-03-17T08:57:51.539Z,24.06
2019-03-17T08:58:51.533Z,24.11
2019-03-17T08:59:51.514Z,24.02
2019-03-17T09:00:51.511Z,23.92
2019-03-17T09:01:51.492Z,23.86
2019-03-17T09:02:51.482Z,23.80
2019-03-17T09:03:51.469Z,23.80
2019-03-17T09:04:51.463Z,23.83
2019-03-17T09:05:51.449Z,23.80
2019-03-17T09:06:51.453Z,23.78
2019-03-17T09:07:51.429Z,23.74
2019-03-17T09:08:51.417Z,23.63
2019-03-17T09:09:51.409Z,23.69
2019-03-17T09:10:51.420Z,23.74
2019-03-17T09:11:51.388Z,23.76
2019-03-17T09:12:51.373Z,23.71
2019-03-17T09:13:51.361Z,23.65
2019-03-17T09:14:51.357Z,23.68
2019-03-17T09:15:51.341Z,23.66
2019-03-17T09:16:51.333Z,23.66
2019-03-17T09:17:51.320Z,23.73
2019-03-17T09:18:51.308Z,23.81
2019-03-17T09:19:51.339Z,23.93
2019-03-17T09:20:51.288Z,24.02
2019-03-17T09:21:51.297Z,24.16
2019-03-17T09:22:51.284Z,24.20
2019-03-17T09:23:51.256Z,24.30
2019-03-17T09:24:51.261Z,24.45
2019-03-17T09:25:51.232Z,24.65
2019-03-17T09:26:51.227Z,24.73
2019-03-17T09:27:52.140Z,24.96
2019-03-17T09:28:51.202Z,25.26
2019-03-17T09:29:51.196Z,25.31
2019-03-17T09:30:51.188Z,25.47
2019-03-17T09:31:51.178Z,25.73
2019-03-17T09:32:51.160Z,25.87
2019-03-17T09:33:51.163Z,25.93
2019-03-17T09:34:51.135Z,25.98
2019-03-17T09:35:51.149Z,26.05
2019-03-17T09:36:51.119Z,26.06
2019-03-17T09:37:51.114Z,26.21
2019-03-17T09:38:51.102Z,26.13
2019-03-17T09:39:51.100Z,25.87
2019-03-17T09:40:51.073Z,25.88
2019-03-17T09:41:51.065Z,25.91
2019-03-17T09:42:51.053Z,25.95
2019-03-17T09:43:51.042Z,25.96
2019-03-17T09:44:51.029Z,26.02
2019-03-17T09:45:51.028Z,26.09
2019-03-17T09:46:51.008Z,26.15
2019-03-17T09:47:51.021Z,26.09
2019-03-17T09:48:50.987Z,26.07
2019-03-17T09:49:50.978Z,26.13
2019-03-17T09:50:50.972Z,26.25
2019-03-17T09:51:50.975Z,26.25
2019-03-17T09:52:50.944Z,26.31
2019-03-17T09:53:50.961Z,26.34
2019-03-17T09:54:50.923Z,26.21
2019-03-17T09:55:50.916Z,26.10
2019-03-17T09:56:50.906Z,26.16
2019-03-17T09:57:50.893Z,25.84
2019-03-17T09:58:50.882Z,25.53
2019-03-17T09:59:50.869Z,25.41
2019-03-17T10:00:50.860Z,25.22
2019-03-17T10:01:50.850Z,24.98
2019-03-17T10:02:50.839Z,24.99
2019-03-17T10:03:50.829Z,24.76
2019-03-17T10:04:50.821Z,24.66
2019-03-17T10:05:50.805Z,24.53
2019-03-17T10:06:50.796Z,24.43
2019-03-17T10:07:50.787Z,24.35
2019-03-17T10:08:59.803Z,24.24
2019-03-17T10:09:51.767Z,24.23
2019-03-17T10:10:50.766Z,24.10
2019-03-17T10:11:50.771Z,24.03
2019-03-17T10:12:50.734Z,23.99
2019-03-17T10:13:50.722Z,23.95
2019-03-17T10:14:50.719Z,23.93
2019-03-17T10:15:50.701Z,23.91
2019-03-17T10:16:50.699Z,23.81
2019-03-17T10:17:50.679Z,23.78
2019-03-17T10:18:50.670Z,23.73
2019-03-17T10:19:50.658Z,23.76
2019-03-17T10:20:50.655Z,23.63
2019-03-17T10:21:50.640Z,23.61
2019-03-17T10:22:50.647Z,23.62
2019-03-17T10:23:50.622Z,23.56
2019-03-17T10:24:50.606Z,23.59
2019-03-17T10:25:50.595Z,23.55
2019-03-17T10:26:50.601Z,23.55
2019-03-17T10:27:50.579Z,23.48
2019-03-17T10:28:50.573Z,23.34
2019-03-17T10:29:50.553Z,23.37
2019-03-17T10:30:50.547Z,23.43
2019-03-17T10:31:50.533Z,23.41
2019-03-17T10:32:50.544Z,23.28
2019-03-17T10:33:50.516Z,23.37
2019-03-17T10:34:50.520Z,23.32
2019-03-17T10:35:50.491Z,23.25
2019-03-17T10:36:50.487Z,23.18
2019-03-17T10:37:50.468Z,23.18
2019-03-17T10:38:50.466Z,23.21
2019-03-17T10:39:50.449Z,23.12
2019-03-17T10:40:50.435Z,23.15
2019-03-17T10:41:50.431Z,23.08
2019-03-17T10:42:50.428Z,23.08
2019-03-17T10:43:50.408Z,23.05
2019-03-17T10:44:50.415Z,23.05
2019-03-17T10:45:50.385Z,22.98
2019-03-17T10:46:50.375Z,22.94
2019-03-17T10:47:50.361Z,23.02
2019-03-17T10:48:50.349Z,22.94
2019-03-17T10:49:50.346Z,23.00
2019-03-17T10:50:50.330Z,22.94
2019-03-17T10:51:50.324Z,22.96
2019-03-17T10:52:50.307Z,22.91
2019-03-17T10:53:50.296Z,22.90
2019-03-17T10:54:50.284Z,22.88
2019-03-17T10:55:50.274Z,22.88
2019-03-17T10:56:50.265Z,22.83
2019-03-17T10:57:50.266Z,22.81
2019-03-17T10:58:50.241Z,22.84
2019-03-17T10:59:50.233Z,22.84
2019-03-17T11:00:50.221Z,22.84
2019-03-17T11:01:50.213Z,22.81
2019-03-17T11:02:50.204Z,22.83
2019-03-17T11:03:50.199Z,22.81
2019-03-17T11:04:50.180Z,22.75
2019-03-17T11:05:50.173Z,22.72
2019-03-17T11:06:50.157Z,22.70
2019-03-17T11:07:50.145Z,22.70
2019-03-17T11:08:50.143Z,22.78
2019-03-17T11:09:50.122Z,22.80
2019-03-17T11:10:50.114Z,22.72
2019-03-17T11:11:50.106Z,22.72
2019-03-17T11:12:50.092Z,22.72
2019-03-17T11:13:50.085Z,22.70
2019-03-17T11:14:50.072Z,22.72
2019-03-17T11:15:50.058Z,22.68
2019-03-17T11:16:50.049Z,22.73
2019-03-17T11:17:50.051Z,22.69
2019-03-17T11:18:50.029Z,22.60
2019-03-17T11:19:50.014Z,22.68
2019-03-17T11:20:50.011Z,22.59
2019-03-17T11:21:50.001Z,22.68
2019-03-17T11:22:50.054Z,22.66
2019-03-17T11:23:49.970Z,22.66
2019-03-17T11:24:49.988Z,22.65
2019-03-17T11:25:49.952Z,22.72
2019-03-17T11:26:49.949Z,22.65
2019-03-17T11:27:49.926Z,22.69
2019-03-17T11:28:49.917Z,22.59
2019-03-17T11:29:49.904Z,22.65
2019-03-17T11:30:49.903Z,22.62
2019-03-17T11:31:49.909Z,22.62
2019-03-17T11:32:49.889Z,22.60
2019-03-17T11:33:49.861Z,22.59
2019-03-17T11:34:49.849Z,22.60
2019-03-17T11:35:49.838Z,22.60
2019-03-17T11:36:49.833Z,22.66
2019-03-17T11:37:49.875Z,22.69
2019-03-17T11:38:49.806Z,22.63
2019-03-17T11:39:49.797Z,22.63
2019-03-17T11:40:49.789Z,22.60
2019-03-17T11:41:49.775Z,22.68
2019-03-17T11:42:50.453Z,22.57
2019-03-17T11:43:49.764Z,22.62
2019-03-17T11:44:49.764Z,22.55
2019-03-17T11:45:49.730Z,22.60
2019-03-17T11:46:49.802Z,22.62
2019-03-17T11:47:49.714Z,22.60
2019-03-17T11:48:49.697Z,22.48
2019-03-17T11:49:49.687Z,22.55
2019-03-17T11:50:49.677Z,22.44
2019-03-17T11:51:49.666Z,22.51
2019-03-17T11:52:49.658Z,22.48
2019-03-17T11:53:49.643Z,22.44
2019-03-17T11:54:49.643Z,22.43
2019-03-17T11:55:49.634Z,22.41
2019-03-17T11:56:49.620Z,22.35
2019-03-17T11:57:49.599Z,22.35
2019-03-17T11:58:49.592Z,22.35
2019-03-17T11:59:49.580Z,22.32
2019-03-17T12:00:49.570Z,22.45
2019-03-17T12:01:49.553Z,22.33
2019-03-17T12:02:49.545Z,22.44
2019-03-17T12:03:49.546Z,22.44
2019-03-17T12:04:49.595Z,22.45
2019-03-17T12:05:49.514Z,22.51
2019-03-17T12:06:49.525Z,22.47
2019-03-17T12:07:49.490Z,22.44
2019-03-17T12:08:49.479Z,22.43
2019-03-17T12:09:50.556Z,22.43
2019-03-17T12:10:49.483Z,22.48
2019-03-17T12:11:49.453Z,22.44
2019-03-17T12:12:49.460Z,22.45
2019-03-17T12:13:49.425Z,22.44
2019-03-17T12:14:49.415Z,22.43
2019-03-17T12:15:49.401Z,22.47
2019-03-17T12:16:49.402Z,22.45
2019-03-17T12:17:49.378Z,22.45
2019-03-17T12:18:49.375Z,22.48
2019-03-17T12:19:49.356Z,22.44
2019-03-17T12:20:49.346Z,22.47
2019-03-17T12:21:49.335Z,22.45
2019-03-17T12:22:49.328Z,22.50
2019-03-17T12:23:49.392Z,22.43
2019-03-17T12:24:49.302Z,22.47
2019-03-17T12:25:49.294Z,22.43
2019-03-17T12:26:49.281Z,22.48
2019-03-17T12:27:49.273Z,22.45
2019-03-17T12:28:49.270Z,22.47
2019-03-17T12:29:49.265Z,22.38
2019-03-17T12:30:49.237Z,22.44
2019-03-17T12:31:49.225Z,22.43
2019-03-17T12:32:49.258Z,22.39
2019-03-17T12:33:49.209Z,22.50
2019-03-17T12:34:49.197Z,22.43
2019-03-17T12:35:49.203Z,22.35
2019-03-17T12:36:49.172Z,22.36
2019-03-17T12:37:49.160Z,22.44
2019-03-17T12:38:49.161Z,22.45
2019-03-17T12:39:49.141Z,22.39
2019-03-17T12:40:49.139Z,22.41
2019-03-17T12:41:49.116Z,22.39
2019-03-17T12:42:49.105Z,22.39
2019-03-17T12:43:49.097Z,22.38
2019-03-17T12:44:49.084Z,22.36
2019-03-17T12:45:49.077Z,22.33
2019-03-17T12:46:49.078Z,22.45
2019-03-17T12:47:49.050Z,22.51
2019-03-17T12:48:49.038Z,22.48
2019-03-17T12:49:49.033Z,22.48
2019-03-17T12:50:49.019Z,22.45
2019-03-17T12:51:49.007Z,22.59
2019-03-17T12:52:48.999Z,22.43